Time;durP1;ratioP1;P1;durP2;ratioP2;P2;SDS_P1;SDS_P2;PMS_P1;PMS_P2;Temp;Humidity;BMP_temperature;BMP_pressure;BME280_temperature;BME280_humidity;BME280_pressure;Samples;Min_cycle;Max_cycle;Signal;HPM_P1;HPM_P2
2021/06/20 00:00:23;;;;;;;41.42;36.92;;;;;;;18.91;100.00;100499.72;5255769;28;20363;-65
2021/06/20 00:02:55;;;;;;;40.95;36.65;;;;;;;18.92;100.00;100495.22;5257458;28;20266;-65
2021/06/20 00:05:33;;;;;;;41.15;36.70;;;;;;;18.98;100.00;100512.19;5256385;28;20750;-64
2021/06/20 00:08:07;;;;;;;44.45;38.03;;;;;;;18.91;100.00;100515.63;5254657;28;20520;-65
2021/06/20 00:10:39;;;;;;;42.90;38.08;;;;;;;18.87;100.00;100513.56;5256800;28;20417;-65
2021/06/20 00:13:11;;;;;;;43.43;38.00;;;;;;;18.88;100.00;100504.59;5256621;28;20052;-65
2021/06/20 00:15:43;;;;;;;44.17;38.90;;;;;;;18.90;100.00;100507.84;5255348;28;20471;-65
2021/06/20 00:18:16;;;;;;;44.88;37.22;;;;;;;18.95;100.00;100497.50;5255541;28;20032;-65
2021/06/20 00:20:48;;;;;;;44.78;38.10;;;;;;;18.90;100.00;100494.56;5256080;28;20053;-66
2021/06/20 00:23:19;;;;;;;40.50;36.03;;;;;;;18.90;100.00;100510.50;5256847;28;20029;-65
2021/06/20 00:25:51;;;;;;;42.70;38.07;;;;;;;18.88;100.00;100501.94;5254639;28;20035;-65
2021/06/20 00:28:22;;;;;;;43.93;37.77;;;;;;;18.91;100.00;100494.41;5257636;28;20025;-65
2021/06/20 00:30:54;;;;;;;41.87;36.77;;;;;;;18.80;100.00;100515.34;5257467;28;20028;-65
2021/06/20 00:33:25;;;;;;;44.20;38.23;;;;;;;18.85;100.00;100527.00;5253343;28;20403;-65
2021/06/20 00:35:58;;;;;;;44.70;36.08;;;;;;;18.85;100.00;100527.00;5255677;28;20078;-66
2021/06/20 00:38:29;;;;;;;42.40;36.03;;;;;;;18.83;100.00;100528.25;5257991;28;20779;-65
2021/06/20 00:41:02;;;;;;;44.37;38.87;;;;;;;18.83;100.00;100523.75;5256209;28;20052;-64
2021/06/20 00:43:33;;;;;;;43.40;37.28;;;;;;;18.82;100.00;100519.44;5254431;28;20037;-63
2021/06/20 00:46:08;;;;;;;43.93;36.67;;;;;;;18.82;100.00;100519.44;5257033;28;20493;-64
2021/06/20 00:48:39;;;;;;;41.70;36.05;;;;;;;18.81;100.00;100527.59;5250757;28;20060;-64
2021/06/20 00:51:11;;;;;;;42.03;37.50;;;;;;;18.85;100.00;100534.97;5256315;28;20056;-64
2021/06/20 00:53:44;;;;;;;45.63;37.67;;;;;;;18.87;100.00;100545.41;5254286;28;20033;-65
2021/06/20 00:56:17;;;;;;;44.85;38.38;;;;;;;18.87;100.00;100556.84;5254572;28;20033;-65
2021/06/20 00:59:01;;;;;;;41.95;37.42;;;;;;;18.89;100.00;100544.19;5254143;28;20113;-64
2021/06/20 01:01:34;;;;;;;50.33;41.17;;;;;;;18.89;100.00;100548.69;5255529;28;20032;-64
2021/06/20 01:04:05;;;;;;;43.90;39.08;;;;;;;18.92;100.00;100559.75;5255230;28;20036;-64
2021/06/20 01:06:37;;;;;;;46.53;38.97;;;;;;;18.95;100.00;100567.34;5256812;28;20025;-64
2021/06/20 01:09:08;;;;;;;44.03;38.17;;;;;;;18.88;100.00;100550.53;5255988;28;20078;-64
2021/06/20 01:11:40;;;;;;;43.17;38.30;;;;;;;18.87;100.00;100543.59;5255553;28;20048;-64
2021/06/20 01:14:12;;;;;;;43.67;37.97;;;;;;;18.99;100.00;100553.69;5255120;28;20367;-64
2021/06/20 01:16:44;;;;;;;44.15;39.00;;;;;;;18.98;100.00;100554.66;5256648;28;20166;-64
2021/06/20 01:19:16;;;;;;;43.40;38.73;;;;;;;18.97;100.00;100540.59;5254924;28;20025;-64
2021/06/20 01:21:48;;;;;;;46.40;38.70;;;;;;;18.97;100.00;100516.69;5256092;28;20105;-64
2021/06/20 01:24:19;;;;;;;45.20;40.17;;;;;;;18.92;100.00;100500.53;5256077;28;20371;-64
2021/06/20 01:26:51;;;;;;;47.03;40.77;;;;;;;18.90;100.00;100479.50;5253030;28;20033;-64
2021/06/20 01:29:29;;;;;;;43.53;38.83;;;;;;;18.90;100.00;100486.63;5255455;28;20043;-64
2021/06/20 01:32:01;;;;;;;46.83;40.00;;;;;;;18.95;100.00;100503.63;5255565;28;20049;-64
2021/06/20 01:34:32;;;;;;;43.50;38.57;;;;;;;18.99;100.00;100493.44;5254172;28;20027;-64
2021/06/20 01:37:08;;;;;;;44.20;39.47;;;;;;;19.02;100.00;100481.63;5255936;28;20029;-64
2021/06/20 01:39:40;;;;;;;46.78;39.70;;;;;;;18.91;100.00;100491.75;5252770;28;20040;-64
2021/06/20 01:42:14;;;;;;;44.87;40.07;;;;;;;18.92;100.00;100490.72;5255211;28;20016;-64
2021/06/20 01:44:57;;;;;;;44.55;38.97;;;;;;;19.00;100.00;100486.28;5253298;28;20467;-64
2021/06/20 01:47:29;;;;;;;45.45;39.35;;;;;;;18.92;100.00;100468.69;5254900;28;20043;-64
2021/06/20 01:50:03;;;;;;;43.47;38.87;;;;;;;18.95;100.00;100476.25;5255488;28;20362;-64
2021/06/20 01:52:35;;;;;;;47.42;38.95;;;;;;;18.91;100.00;100488.28;5254853;28;20832;-64
2021/06/20 01:55:09;;;;;;;45.40;39.73;;;;;;;18.91;100.00;100480.31;5252439;28;20021;-65
2021/06/20 01:57:41;;;;;;;47.53;40.63;;;;;;;18.87;100.00;100469.25;5256361;28;20437;-64
2021/06/20 02:00:16;;;;;;;43.47;38.63;;;;;;;18.88;100.00;100486.00;5253648;28;20039;-64
2021/06/20 02:02:47;;;;;;;47.80;40.10;;;;;;;18.87;100.00;100505.59;5252584;28;20033;-64
2021/06/20 02:05:24;;;;;;;46.93;41.57;;;;;;;18.85;100.00;100536.81;5251284;28;20071;-64
2021/06/20 02:07:56;;;;;;;50.60;40.72;;;;;;;18.83;100.00;100557.44;5254522;28;20110;-64
2021/06/20 02:10:27;;;;;;;50.20;42.77;;;;;;;18.84;100.00;100553.75;5253688;28;20079;-64
2021/06/20 02:12:58;;;;;;;51.83;42.80;;;;;;;18.87;100.00;100553.38;5253544;28;20025;-64
2021/06/20 02:15:30;;;;;;;49.97;43.13;;;;;;;18.87;100.00;100551.53;5254577;28;20031;-64
2021/06/20 02:18:02;;;;;;;53.17;43.60;;;;;;;18.86;100.00;100554.38;5254292;28;20091;-64
2021/06/20 02:20:33;;;;;;;47.87;41.67;;;;;;;18.89;100.00;100559.31;5252926;28;20060;-65
2021/06/20 02:23:06;;;;;;;48.47;41.03;;;;;;;18.85;100.00;100552.75;5253526;28;20397;-64
2021/06/20 02:25:37;;;;;;;47.63;39.77;;;;;;;18.82;100.00;100540.66;5252749;28;20076;-65
2021/06/20 02:28:08;;;;;;;48.00;42.43;;;;;;;18.74;100.00;100553.25;5255533;28;20784;-64
2021/06/20 02:30:40;;;;;;;49.67;44.27;;;;;;;18.61;100.00;100552.09;5254158;28;20043;-64
2021/06/20 02:33:13;;;;;;;50.60;45.13;;;;;;;18.51;100.00;100554.22;5252308;28;20041;-65
2021/06/20 02:35:45;;;;;;;48.70;43.05;;;;;;;18.47;100.00;100563.59;5253803;28;20046;-64
2021/06/20 02:38:16;;;;;;;48.43;43.20;;;;;;;18.42;100.00;100560.69;5253622;28;20021;-64
2021/06/20 02:40:47;;;;;;;48.37;43.07;;;;;;;18.43;100.00;100564.97;5251571;28;20486;-65
2021/06/20 02:43:19;;;;;;;52.23;46.37;;;;;;;18.34;100.00;100560.81;5252174;28;20444;-65
2021/06/20 02:45:50;;;;;;;48.90;43.63;;;;;;;18.31;100.00;100569.94;5252358;28;20076;-64
2021/06/20 02:48:21;;;;;;;50.77;43.93;;;;;;;18.30;100.00;100563.00;5251352;28;20524;-64
2021/06/20 02:50:52;;;;;;;53.05;46.08;;;;;;;18.18;100.00;100561.84;5253822;28;20474;-64
2021/06/20 02:53:24;;;;;;;50.75;44.60;;;;;;;18.16;100.00;100571.81;5254267;28;20490;-65
2021/06/20 02:55:55;;;;;;;50.50;43.70;;;;;;;18.11;100.00;100568.91;5253287;28;20025;-65
2021/06/20 02:58:26;;;;;;;49.13;43.80;;;;;;;18.07;100.00;100571.13;5251605;28;20115;-64
2021/06/20 03:00:57;;;;;;;53.73;45.87;;;;;;;18.06;100.00;100573.94;5249137;28;20021;-64
2021/06/20 03:03:29;;;;;;;50.50;42.80;;;;;;;17.97;100.00;100578.53;5251002;28;20324;-65
2021/06/20 03:06:02;;;;;;;50.80;43.07;;;;;;;18.06;100.00;100585.34;5252525;28;20487;-64
2021/06/20 03:08:33;;;;;;;46.45;41.47;;;;;;;17.96;100.00;100592.78;5254564;28;20102;-64
2021/06/20 03:11:05;;;;;;;47.15;42.10;;;;;;;18.02;100.00;100589.38;5252900;28;20021;-65
2021/06/20 03:13:36;;;;;;;46.10;41.07;;;;;;;18.01;100.00;100589.59;5253171;28;20061;-64
2021/06/20 03:16:08;;;;;;;48.25;40.90;;;;;;;18.03;100.00;100595.50;5251784;28;20029;-65
2021/06/20 03:18:39;;;;;;;45.83;41.03;;;;;;;18.04;100.00;100594.53;5253831;28;20020;-65
2021/06/20 03:21:11;;;;;;;47.50;41.00;;;;;;;18.01;100.00;100597.53;5252162;28;20558;-65
2021/06/20 03:23:44;;;;;;;45.63;40.73;;;;;;;17.99;100.00;100595.91;5251048;28;20021;-64
2021/06/20 03:26:16;;;;;;;;;;;;;;;18.20;100.00;100596.94;5253530;28;20071;-64
2021/06/20 03:28:47;;;;;;;49.35;40.72;;;;;;;17.90;100.00;100593.50;5250896;28;19913;-65
2021/06/20 03:31:18;;;;;;;50.50;42.43;;;;;;;17.88;100.00;100592.88;5253029;28;20386;-65
2021/06/20 03:33:50;;;;;;;48.30;41.13;;;;;;;17.84;100.00;100587.13;5253758;28;20033;-64
2021/06/20 03:36:21;;;;;;;50.20;43.92;;;;;;;17.86;100.00;100590.41;5251412;28;20087;-65
2021/06/20 03:38:52;;;;;;;48.50;41.20;;;;;;;17.85;100.00;100580.81;5252548;28;20512;-65
2021/06/20 03:41:24;;;;;;;54.60;44.27;;;;;;;17.79;100.00;100581.53;5254718;28;20185;-65
2021/06/20 03:43:55;;;;;;;48.97;41.60;;;;;;;17.82;100.00;100581.19;5253430;28;20043;-65
2021/06/20 03:46:27;;;;;;;50.47;43.23;;;;;;;17.78;100.00;100579.09;5249943;28;20116;-65
2021/06/20 03:48:58;;;;;;;54.45;43.45;;;;;;;17.81;100.00;100584.03;5252563;28;20065;-64
2021/06/20 03:51:33;;;;;;;48.33;42.17;;;;;;;17.81;100.00;100587.50;5253210;28;20395;-64
2021/06/20 03:54:04;;;;;;;51.88;43.10;;;;;;;17.78;100.00;100592.34;5250169;28;20033;-64
2021/06/20 03:56:36;;;;;;;55.70;44.38;;;;;;;17.78;100.00;100598.47;5246405;28;20498;-65
2021/06/20 03:59:09;;;;;;;53.37;45.03;;;;;;;17.84;100.00;100615.44;5247568;28;20490;-65
2021/06/20 04:01:40;;;;;;;;;;;;;;;18.03;100.00;100616.72;5249622;28;20036;-64
2021/06/20 04:04:11;;;;;;;58.60;43.93;;;;;;;17.78;100.00;100621.50;5250052;28;19921;-64
2021/06/20 04:06:42;;;;;;;54.60;44.73;;;;;;;17.81;100.00;100631.72;5251419;28;20032;-64
2021/06/20 04:09:14;;;;;;;52.80;44.40;;;;;;;17.76;100.00;100624.31;5250515;28;20025;-64
2021/06/20 04:11:47;;;;;;;52.37;44.60;;;;;;;17.80;100.00;100635.38;5250797;28;20513;-64
2021/06/20 04:14:18;;;;;;;;;;;;;;;18.04;100.00;100643.06;5252262;28;20024;-65
2021/06/20 04:16:49;;;;;;;54.17;42.93;;;;;;;17.89;100.00;100639.59;5253624;28;19925;-65
2021/06/20 04:19:20;;;;;;;57.13;45.53;;;;;;;17.83;100.00;100642.94;5253301;28;20287;-68
2021/06/20 04:21:52;;;;;;;55.00;45.47;;;;;;;17.86;100.00;100635.47;5248100;28;20510;-67
2021/06/20 04:24:23;;;;;;;60.17;47.47;;;;;;;17.80;100.00;100638.81;5249670;28;20056;-65
2021/06/20 04:26:55;;;;;;;59.05;46.40;;;;;;;17.81;100.00;100643.16;5249784;28;20022;-64
2021/06/20 04:29:26;;;;;;;59.58;45.92;;;;;;;17.84;100.00;100647.25;5252094;28;20405;-65
2021/06/20 04:31:57;;;;;;;62.00;47.73;;;;;;;17.81;100.00;100639.69;5253641;28;20410;-64
2021/06/20 04:34:29;;;;;;;62.38;47.60;;;;;;;17.81;100.00;100644.97;5256550;28;20068;-65
2021/06/20 04:37:01;;;;;;;63.88;47.28;;;;;;;17.81;100.00;100637.03;5255271;28;20625;-65
2021/06/20 04:39:33;;;;;;;66.07;48.83;;;;;;;17.81;100.00;100634.38;5255002;28;20032;-65
2021/06/20 04:42:06;;;;;;;65.85;49.55;;;;;;;17.79;100.00;100633.72;5255303;28;20913;-64
2021/06/20 04:44:45;;;;;;;66.38;48.08;;;;;;;17.77;100.00;100635.72;5257034;28;20039;-66
2021/06/20 04:47:19;;;;;;;63.53;48.22;;;;;;;17.81;100.00;100629.91;5254600;28;20467;-66
2021/06/20 04:49:52;;;;;;;61.42;46.13;;;;;;;17.85;100.00;100639.13;5255845;28;20044;-67
2021/06/20 04:52:24;;;;;;;64.15;46.72;;;;;;;17.90;100.00;100643.88;5254697;28;20392;-65
2021/06/20 04:54:55;;;;;;;62.67;46.20;;;;;;;17.93;100.00;100648.81;5256972;28;20036;-64
2021/06/20 04:57:29;;;;;;;60.23;46.70;;;;;;;17.97;100.00;100647.44;5255197;28;20028;-65
2021/06/20 05:00:01;;;;;;;64.50;45.65;;;;;;;17.99;100.00;100654.22;5256158;28;20028;-65
2021/06/20 05:02:33;;;;;;;60.43;46.30;;;;;;;18.07;100.00;100649.78;5255589;28;20025;-65
2021/06/20 05:05:05;;;;;;;56.80;43.67;;;;;;;18.10;100.00;100663.50;5254721;28;20286;-65
2021/06/20 05:07:37;;;;;;;53.67;41.75;;;;;;;18.08;100.00;100654.94;5254272;28;20475;-65
2021/06/20 05:10:09;;;;;;;52.97;42.93;;;;;;;18.08;100.00;100660.22;5255888;28;20024;-65
2021/06/20 05:12:40;;;;;;;51.90;40.50;;;;;;;18.11;100.00;100656.41;5255398;28;20044;-65
2021/06/20 05:15:12;;;;;;;55.13;41.13;;;;;;;18.11;100.00;100659.88;5253116;28;20283;-65
2021/06/20 05:17:43;;;;;;;46.40;37.60;;;;;;;18.14;100.00;100656.81;5254279;28;20036;-65
2021/06/20 05:20:14;;;;;;;51.80;40.50;;;;;;;18.12;100.00;100666.00;5255227;28;20395;-65
2021/06/20 05:22:45;;;;;;;45.38;35.83;;;;;;;18.16;100.00;100651.34;5254297;28;20512;-65
2021/06/20 05:25:17;;;;;;;47.70;37.67;;;;;;;18.15;100.00;100663.78;5255329;28;20309;-65
2021/06/20 05:27:48;;;;;;;45.63;36.78;;;;;;;18.13;100.00;100665.78;5256665;28;20497;-65
2021/06/20 05:30:20;;;;;;;42.53;35.50;;;;;;;18.11;100.00;100661.69;5255776;28;20116;-65
2021/06/20 05:32:53;;;;;;;42.20;33.33;;;;;;;18.15;100.00;100665.63;5252792;28;20025;-65
2021/06/20 05:35:24;;;;;;;41.40;33.17;;;;;;;18.06;100.00;100674.66;5255405;28;20025;-65
2021/06/20 05:37:56;;;;;;;39.80;32.10;;;;;;;18.08;100.00;100670.84;5256463;28;20093;-65
2021/06/20 05:40:27;;;;;;;38.67;30.73;;;;;;;18.06;100.00;100678.13;5256644;28;20111;-65
2021/06/20 05:42:58;;;;;;;37.55;30.90;;;;;;;18.07;100.00;100677.16;5252646;28;20025;-65
2021/06/20 05:45:30;;;;;;;41.63;31.63;;;;;;;18.11;100.00;100677.63;5252711;28;20082;-65
2021/06/20 05:48:02;;;;;;;38.67;31.33;;;;;;;18.10;100.00;100690.03;5255935;28;20036;-65
2021/06/20 05:50:33;;;;;;;36.80;31.57;;;;;;;18.10;100.00;100702.47;5254921;28;20035;-65
2021/06/20 05:53:04;;;;;;;38.03;30.65;;;;;;;18.06;100.00;100696.69;5254499;28;20055;-66
2021/06/20 05:55:35;;;;;;;35.77;29.47;;;;;;;18.11;100.00;100694.34;5255649;28;20024;-66
2021/06/20 05:58:07;;;;;;;40.53;31.13;;;;;;;18.11;100.00;100691.69;5254900;28;20033;-65
2021/06/20 06:00:39;;;;;;;38.47;32.00;;;;;;;18.06;100.00;100688.75;5251470;28;20454;-66
2021/06/20 06:03:10;;;;;;;36.60;29.50;;;;;;;18.10;100.00;100684.72;5255415;28;20031;-65
2021/06/20 06:05:41;;;;;;;38.28;31.05;;;;;;;18.14;100.00;100691.28;5255578;28;20071;-66
2021/06/20 06:08:12;;;;;;;36.88;29.83;;;;;;;18.26;100.00;100699.63;5254857;28;20665;-65
2021/06/20 06:10:44;;;;;;;40.90;31.67;;;;;;;18.34;100.00;100698.72;5253099;28;20036;-66
2021/06/20 06:13:15;;;;;;;38.63;31.65;;;;;;;18.49;100.00;100702.19;5247235;28;20031;-65
2021/06/20 06:15:47;;;;;;;37.20;31.47;;;;;;;18.58;100.00;100702.88;5253861;28;20387;-65
2021/06/20 06:18:18;;;;;;;38.15;31.95;;;;;;;18.66;100.00;100706.25;5254763;28;20033;-65
2021/06/20 06:20:49;;;;;;;33.93;29.47;;;;;;;18.62;100.00;100720.06;5255209;28;20052;-65
2021/06/20 06:23:21;;;;;;;33.20;28.75;;;;;;;18.57;100.00;100703.91;5253171;28;20031;-65
2021/06/20 06:25:52;;;;;;;31.57;27.67;;;;;;;18.55;100.00;100717.34;5252318;28;20107;-65
2021/06/20 06:28:23;;;;;;;31.73;26.35;;;;;;;18.59;100.00;100734.53;5255522;28;20474;-66
2021/06/20 06:30:55;;;;;;;34.17;26.13;;;;;;;18.73;100.00;100734.72;5252056;28;20133;-65
2021/06/20 06:33:26;;;;;;;30.60;24.97;;;;;;;18.90;100.00;100736.13;5255429;28;20063;-65
2021/06/20 06:35:57;;;;;;;29.20;24.50;;;;;;;19.07;100.00;100734.09;5254164;28;20033;-66
2021/06/20 06:38:29;;;;;;;28.87;23.57;;;;;;;19.22;100.00;100736.69;5251969;28;20037;-65
2021/06/20 06:41:00;;;;;;;22.50;19.97;;;;;;;19.20;96.88;100745.66;5253814;28;20057;-65
2021/06/20 06:43:32;;;;;;;23.23;20.73;;;;;;;19.12;97.47;100759.06;5255449;28;20475;-65
2021/06/20 06:46:03;;;;;;;22.97;19.73;;;;;;;19.08;96.27;100749.81;5253845;28;20036;-66
2021/06/20 06:48:35;;;;;;;25.10;20.73;;;;;;;19.13;94.88;100757.22;5254050;28;20032;-66
2021/06/20 06:51:06;;;;;;;22.47;19.87;;;;;;;19.07;96.25;100761.47;5254366;28;20067;-66
2021/06/20 06:53:37;;;;;;;22.27;19.87;;;;;;;19.17;96.29;100751.38;5252988;28;20029;-65
2021/06/20 06:56:09;;;;;;;25.83;20.73;;;;;;;19.14;95.44;100750.91;5252925;28;20040;-66
2021/06/20 06:58:40;;;;;;;22.40;19.20;;;;;;;19.23;95.32;100749.78;5253887;28;20052;-65
2021/06/20 07:01:11;;;;;;;22.10;19.80;;;;;;;19.25;95.23;100738.97;5254146;28;20035;-65
2021/06/20 07:03:43;;;;;;;22.57;18.63;;;;;;;19.33;94.20;100730.88;5251279;28;20036;-66
2021/06/20 07:06:14;;;;;;;21.87;17.07;;;;;;;19.45;94.50;100726.69;5251965;28;20032;-66
2021/06/20 07:08:46;;;;;;;24.13;19.13;;;;;;;19.47;93.69;100740.59;5254138;28;20044;-66
2021/06/20 07:11:18;;;;;;;23.87;19.67;;;;;;;19.48;92.06;100733.47;5248992;28;20029;-66
2021/06/20 07:13:51;;;;;;;24.53;19.67;;;;;;;19.58;92.15;100741.91;5252601;28;20059;-66
2021/06/20 07:16:22;;;;;;;21.75;17.75;;;;;;;19.75;93.28;100732.69;5252169;28;20029;-66
2021/06/20 07:18:54;;;;;;;21.90;19.47;;;;;;;19.68;89.78;100739.78;5251444;28;20035;-66
2021/06/20 07:21:25;;;;;;;20.73;18.53;;;;;;;19.63;89.69;100734.25;5250978;28;20053;-66
2021/06/20 07:23:56;;;;;;;19.53;17.30;;;;;;;19.74;90.73;100740.88;5252946;28;20020;-66
2021/06/20 07:26:28;;;;;;;20.17;16.97;;;;;;;19.82;90.90;100738.06;5251619;28;20033;-66
2021/06/20 07:28:59;;;;;;;18.87;16.27;;;;;;;19.89;89.43;100760.22;5253224;28;20033;-66
2021/06/20 07:31:31;;;;;;;17.77;15.63;;;;;;;19.82;89.17;100759.34;5250155;28;20030;-66
2021/06/20 07:34:02;;;;;;;18.00;16.10;;;;;;;19.90;87.94;100768.00;5252694;28;20029;-66
2021/06/20 07:36:33;;;;;;;18.57;15.97;;;;;;;19.89;89.01;100757.56;5252854;28;20071;-66
2021/06/20 07:39:05;;;;;;;19.33;16.60;;;;;;;19.98;89.49;100771.53;5251500;28;20048;-66
2021/06/20 07:41:36;;;;;;;19.97;16.30;;;;;;;20.08;88.54;100782.66;5250976;28;20406;-66
2021/06/20 07:44:07;;;;;;;19.40;16.70;;;;;;;20.11;86.31;100780.41;5252214;28;20279;-66
2021/06/20 07:46:39;;;;;;;17.87;14.97;;;;;;;20.32;89.29;100778.69;5251570;28;20033;-66
2021/06/20 07:49:10;;;;;;;16.63;14.80;;;;;;;20.30;85.97;100783.38;5252359;28;20029;-66
2021/06/20 07:51:41;;;;;;;18.77;16.20;;;;;;;20.21;85.54;100776.59;5250935;28;20032;-66
2021/06/20 07:54:13;;;;;;;17.80;15.03;;;;;;;20.06;84.86;100785.47;5253374;28;20040;-66
2021/06/20 07:56:44;;;;;;;17.60;15.17;;;;;;;19.96;85.43;100774.34;5250859;28;20226;-66
2021/06/20 07:59:15;;;;;;;19.70;14.67;;;;;;;19.92;85.76;100783.72;5251433;28;20072;-66
2021/06/20 08:01:47;;;;;;;16.20;13.93;;;;;;;19.93;84.64;100780.09;5248026;28;20090;-66
2021/06/20 08:04:18;;;;;;;18.67;14.43;;;;;;;19.86;85.23;100779.22;5248841;28;20026;-66
2021/06/20 08:06:49;;;;;;;15.90;13.80;;;;;;;20.02;86.03;100768.28;5251643;28;20068;-66
2021/06/20 08:09:20;;;;;;;15.77;14.13;;;;;;;20.12;85.39;100771.41;5255757;28;20037;-66
2021/06/20 08:11:52;;;;;;;15.47;13.67;;;;;;;20.39;84.46;100783.03;5255895;28;20024;-66
2021/06/20 08:14:26;;;;;;;13.90;12.30;;;;;;;20.78;84.40;100778.16;5252776;28;20114;-66
2021/06/20 08:16:57;;;;;;;14.10;12.55;;;;;;;20.93;83.61;100770.00;5250805;28;20035;-66
2021/06/20 08:19:29;;;;;;;10.73;9.57;;;;;;;21.17;80.36;100763.31;5251030;28;20486;-66
2021/06/20 08:22:01;;;;;;;16.23;10.40;;;;;;;21.23;79.13;100765.16;5254951;28;20509;-66
2021/06/20 08:24:32;;;;;;;11.50;9.80;;;;;;;21.36;79.21;100783.88;5254817;28;20036;-66
2021/06/20 08:27:05;;;;;;;11.63;10.17;;;;;;;21.70;79.22;100798.06;5251527;28;20104;-66
2021/06/20 08:29:37;;;;;;;12.75;10.75;;;;;;;21.82;78.22;100793.75;5251973;28;20028;-66
2021/06/20 08:32:08;;;;;;;12.57;10.32;;;;;;;22.02;76.64;100804.44;5250630;28;20029;-66
2021/06/20 08:34:40;;;;;;;12.23;9.27;;;;;;;21.99;76.53;100807.50;5251227;28;20027;-66
2021/06/20 08:37:11;;;;;;;12.03;10.70;;;;;;;22.15;77.31;100804.44;5251468;28;20086;-66
2021/06/20 08:39:42;;;;;;;12.33;9.90;;;;;;;22.10;75.16;100805.03;5251298;28;20080;-66
2021/06/20 08:42:14;;;;;;;9.77;8.30;;;;;;;22.23;74.34;100806.06;5250707;28;20113;-66
2021/06/20 08:44:45;;;;;;;10.57;8.47;;;;;;;22.04;75.95;100813.03;5252148;28;20124;-66
2021/06/20 08:47:17;;;;;;;8.70;7.90;;;;;;;22.23;75.31;100830.91;5251136;28;20017;-66
2021/06/20 08:49:49;;;;;;;9.65;8.32;;;;;;;22.06;74.66;100830.50;5251472;28;20094;-66
2021/06/20 08:52:20;;;;;;;9.80;8.23;;;;;;;22.16;73.21;100818.59;5249732;28;20500;-66
2021/06/20 08:55:02;;;;;;;9.97;8.00;;;;;;;22.24;73.61;100813.06;5244343;28;20025;-66
2021/06/20 08:57:36;;;;;;;8.95;8.05;;;;;;;22.40;74.32;100811.81;5248185;28;20048;-66
2021/06/20 09:00:14;;;;;;;10.00;7.97;;;;;;;22.56;73.71;100806.00;5247277;28;20022;-68
2021/06/20 09:02:59;;;;;;;9.90;8.85;;;;;;;22.84;73.27;100805.69;5249103;28;20029;-70
2021/06/20 09:05:30;;;;;;;11.48;9.35;;;;;;;22.75;74.46;100806.97;5249854;28;20044;-66
2021/06/20 09:08:02;;;;;;;9.97;8.57;;;;;;;22.62;74.20;100809.69;5255500;28;20447;-68
2021/06/20 09:10:34;;;;;;;10.87;9.70;;;;;;;22.43;73.76;100820.22;5250540;28;20490;-66
2021/06/20 09:13:06;;;;;;;11.30;8.85;;;;;;;22.42;73.61;100807.06;5247846;28;20098;-66
2021/06/20 09:15:38;;;;;;;10.50;8.82;;;;;;;22.51;72.81;100793.28;5244787;28;20029;-67
2021/06/20 09:18:12;;;;;;;9.27;8.27;;;;;;;22.69;73.04;100789.94;5245850;28;20032;-66
2021/06/20 09:20:45;;;;;;;9.38;8.48;;;;;;;22.82;72.36;100794.41;5245659;28;20064;-66
2021/06/20 09:23:17;;;;;;;9.40;8.00;;;;;;;22.79;72.07;100800.16;5250866;28;20033;-66
2021/06/20 09:25:57;;;;;;;8.90;8.00;;;;;;;22.92;72.07;100800.16;5248518;28;20032;-66
2021/06/20 09:28:32;;;;;;;7.30;6.45;;;;;;;22.90;71.63;100801.38;5250482;28;20573;-66
2021/06/20 09:31:05;;;;;;;7.70;6.20;;;;;;;23.22;72.07;100804.91;5252748;28;20028;-66
2021/06/20 09:33:37;;;;;;;7.35;6.40;;;;;;;23.44;67.53;100802.72;5250029;28;20833;-66
2021/06/20 09:36:08;;;;;;;6.57;5.87;;;;;;;23.60;65.53;100801.38;5249877;28;20044;-66
2021/06/20 09:38:40;;;;;;;7.60;6.10;;;;;;;23.92;67.20;100807.56;5248982;28;20411;-66
2021/06/20 09:41:14;;;;;;;5.00;4.10;;;;;;;24.24;65.00;100810.94;5249770;28;20679;-68
2021/06/20 09:43:54;;;;;;;4.25;3.83;;;;;;;24.08;64.24;100806.19;5248937;28;20383;-66
2021/06/20 09:46:26;;;;;;;4.10;3.35;;;;;;;24.29;63.85;100797.75;5250464;28;20047;-66
2021/06/20 09:48:58;;;;;;;5.03;3.58;;;;;;;24.54;63.51;100804.91;5253427;28;20034;-66
2021/06/20 09:51:30;;;;;;;6.93;4.30;;;;;;;24.55;61.90;100803.88;5251598;28;20038;-66
2021/06/20 09:54:05;;;;;;;4.00;3.53;;;;;;;24.47;62.99;100805.81;5248166;28;20105;-67
2021/06/20 09:56:40;;;;;;;3.95;2.80;;;;;;;24.44;59.96;100802.78;5245731;28;20394;-66
2021/06/20 09:59:12;;;;;;;3.08;2.50;;;;;;;24.54;60.75;100802.22;5253771;28;20021;-66
2021/06/20 10:01:44;;;;;;;4.77;2.60;;;;;;;24.68;59.00;100806.41;5250101;28;20028;-66
2021/06/20 10:04:15;;;;;;;4.20;2.15;;;;;;;24.65;57.73;100810.34;5248333;28;20028;-66
2021/06/20 10:06:46;;;;;;;4.13;2.50;;;;;;;24.70;57.85;100817.69;5245652;28;20024;-66
2021/06/20 10:09:18;;;;;;;3.37;2.57;;;;;;;24.95;57.22;100813.06;5247210;28;20543;-66
2021/06/20 10:11:49;;;;;;;2.43;2.20;;;;;;;24.69;56.08;100810.72;5244964;28;20082;-66
2021/06/20 10:14:21;;;;;;;3.37;2.50;;;;;;;24.45;58.46;100813.25;5249550;28;20028;-67
2021/06/20 10:16:58;;;;;;;3.67;2.07;;;;;;;24.35;59.14;100812.91;5247974;28;20593;-66
2021/06/20 10:19:30;;;;;;;2.35;1.85;;;;;;;24.36;59.31;100835.13;5246304;28;20083;-66
2021/06/20 10:22:10;;;;;;;2.65;2.25;;;;;;;24.33;59.23;100831.06;5241590;28;20577;-65
2021/06/20 10:24:53;;;;;;;3.03;1.98;;;;;;;24.44;58.95;100819.66;5246233;28;20506;-66
2021/06/20 10:27:35;;;;;;;3.28;2.30;;;;;;;24.35;59.33;100820.13;5246041;28;20482;-66
2021/06/20 10:30:09;;;;;;;3.60;1.90;;;;;;;24.03;57.78;100833.59;5249564;28;20027;-66
2021/06/20 10:32:44;;;;;;;3.20;1.75;;;;;;;24.06;58.91;100829.69;5249664;28;20044;-68
2021/06/20 10:35:17;;;;;;;2.65;1.77;;;;;;;24.22;58.23;100832.59;5247815;28;20025;-68
2021/06/20 10:37:52;;;;;;;2.78;1.95;;;;;;;24.63;58.49;100822.34;5248908;28;20026;-66
2021/06/20 10:40:31;;;;;;;3.28;1.90;;;;;;;24.39;57.71;100822.16;5252130;28;20025;-67
2021/06/20 10:43:31;;;;;;;5.20;2.30;;;;;;;24.58;57.56;100830.22;5240515;28;20133;-66
2021/06/20 10:46:13;;;;;;;2.22;1.63;;;;;;;24.63;57.93;100830.38;5240282;28;20115;-67
2021/06/20 10:48:45;;;;;;;3.08;1.73;;;;;;;24.63;58.04;100822.34;5252517;28;20021;-67
2021/06/20 10:51:18;;;;;;;3.73;1.90;;;;;;;25.05;57.01;100819.78;5243743;28;20086;-66
2021/06/20 10:53:51;;;;;;;2.15;1.50;;;;;;;24.98;56.95;100815.31;5245839;28;20512;-66
2021/06/20 10:56:28;;;;;;;2.55;1.60;;;;;;;25.27;55.52;100802.16;5249308;28;20102;-66
2021/06/20 10:58:59;;;;;;;4.05;2.00;;;;;;;25.07;55.79;100801.56;5248769;28;20482;-67
2021/06/20 11:01:42;;;;;;;2.20;1.27;;;;;;;25.33;56.47;100801.25;5251367;28;20039;-66
2021/06/20 11:04:13;;;;;;;3.58;1.20;;;;;;;25.42;53.76;100793.69;5249592;28;20032;-66
2021/06/20 11:06:57;;;;;;;2.77;1.00;;;;;;;25.76;55.17;100791.28;5247783;28;20041;-66
2021/06/20 11:09:36;;;;;;;3.08;1.30;;;;;;;25.87;54.52;100794.00;5243326;28;20033;-66
2021/06/20 11:12:14;;;;;;;2.95;1.27;;;;;;;25.63;54.07;100795.81;5250851;28;20112;-66
2021/06/20 11:14:47;;;;;;;4.45;1.55;;;;;;;25.20;54.27;100793.41;5245864;28;20083;-67
2021/06/20 11:17:18;;;;;;;2.58;1.40;;;;;;;25.12;55.62;100789.19;5238178;28;20140;-67
2021/06/20 11:19:50;;;;;;;3.07;1.23;;;;;;;25.11;53.30;100790.19;5244296;28;20625;-67
2021/06/20 11:22:21;;;;;;;4.30;1.47;;;;;;;25.06;53.85;100782.00;5249438;28;20532;-66
2021/06/20 11:24:52;;;;;;;2.60;1.30;;;;;;;25.09;53.44;100781.56;5242701;28;20247;-66
2021/06/20 11:27:25;;;;;;;3.83;1.50;;;;;;;25.21;53.03;100786.97;5248272;28;20768;-67
2021/06/20 11:29:57;;;;;;;3.47;1.25;;;;;;;25.48;53.14;100782.03;5246245;28;20021;-67
2021/06/20 11:32:33;;;;;;;2.85;1.33;;;;;;;25.57;52.93;100787.88;5246604;28;20028;-66